Station Historical Data
Daily Summary for June 26, 2017 Units:  Metric    English   Both
« Previous Day
Next Day »
Daily Weekly Monthly Yearly Custom
  High: Low: Average:
Temperature: 28.8 °C 16.2 °C 22.7 °C
Dew Point: 16.8 °C 8.6 °C 14.7 °C
Humidity: 92% 29% 64%
Wind Speed: 7.4km/h 0km/h 2.6km/h
Wind Gust: 8km/h - -
Wind- - ESE
Pressure: 1022.2 hPa 1017.5 hPa -
Precipitation: 0.76 mm    
Historical Graphs
 
 
Tabular Data for June 26, 2017
Time Temperature Dew Point Pressure Wind Wind Speed Wind Gust Humidity Rainfall Rate (Hourly) Conditions
00:00 18.4 °C 16.8 °C 1021.2 hPa Calm     90% 0 mm RA
00:10 18.3 °C 16.7 °C 1021.2 hPa Calm     90% 0 mm BKN
00:20 18.3 °C 16.8 °C 1021.2 hPa Calm     91% 0 mm FEW
00:30 18.2 °C 16.7 °C 1020.9 hPa Calm     91% 0 mm FEW
00:40 18.1 °C 16.6 °C 1020.9 hPa Calm     91% 0 mm FEW
00:50 17.9 °C 16.4 °C 1020.9 hPa Calm     91% 0 mm FEW
01:00 17.8 °C 16.3 °C 1020.9 hPa Calm     91% 0 mm FEW
01:10 17.8 °C 16.3 °C 1020.9 hPa Calm     91% 0 mm FEW
01:20 17.7 °C 16.2 °C 1020.9 hPa Calm     91% 0 mm CLR
01:30 17.7 °C 16.2 °C 1020.9 hPa Calm     91% 0 mm CLR
01:40 17.6 °C 16.1 °C 1020.9 hPa Calm     91% 0 mm CLR
01:50 17.5 °C 16.1 °C 1020.9 hPa Calm     91% 0 mm CLR
02:00 17.5 °C 16.2 °C 1020.9 hPa Calm     92% 0 mm CLR
02:10 17 °C 15.5 °C 1020.9 hPa Calm     91% 0 mm CLR
02:20 17 °C 15.5 °C 1020.9 hPa Calm     91% 0 mm CLR
02:30 17 °C 15.5 °C 1020.9 hPa Calm     91% 0 mm CLR
02:40 17 °C 15.5 °C 1020.9 hPa Calm     91% 0 mm CLR
02:50 17 °C 15.5 °C 1020.5 hPa Calm     91% 0 mm CLR
03:00 17 °C 15.5 °C 1020.5 hPa Calm     91% 0 mm CLR
03:10 17 °C 15.5 °C 1020.5 hPa Calm     91% 0 mm CLR
03:20 17 °C 15.5 °C 1020.5 hPa Calm     91% 0 mm CLR
03:30 17 °C 15.5 °C 1020.5 hPa Calm     91% 0 mm CLR
03:40 17 °C 15.5 °C 1020.5 hPa Calm     91% 0 mm CLR
03:50 17 °C 15.5 °C 1020.5 hPa Calm     91% 0 mm CLR
04:00 17 °C 15.5 °C 1020.5 hPa Calm     91% 0 mm CLR
04:10 17 °C 15.5 °C 1020.5 hPa Calm     91% 0 mm CLR
04:20 17 °C 15.5 °C 1020.5 hPa Calm     91% 0 mm CLR
04:30 17 °C 15.5 °C 1020.5 hPa Calm     91% 0 mm CLR
04:40 17 °C 15.5 °C 1020.5 hPa Calm     91% 0 mm CLR
04:50 17 °C 15.5 °C 1020.5 hPa Calm     91% 0 mm CLR
05:00 17 °C 15.5 °C 1020.5 hPa Calm     91% 0 mm CLR
05:10 17 °C 15.5 °C 1020.5 hPa Calm     91% 0 mm CLR
05:20 17 °C 15.5 °C 1020.5 hPa Calm     91% 0 mm CLR
05:30 17 °C 15.5 °C 1020.9 hPa Calm     91% 0 mm CLR
05:40 17 °C 15.5 °C 1020.9 hPa Calm     91% 0 mm CLR
05:50 17 °C 15.5 °C 1020.9 hPa Calm     91% 0 mm CLR
06:00 17 °C 15.5 °C 1020.9 hPa Calm     91% 0 mm CLR
06:10 17 °C 15.5 °C 1021.2 hPa Calm     91% 0 mm CLR
06:20 17 °C 15.5 °C 1021.2 hPa Calm     91% 0 mm CLR
06:30 17 °C 15.5 °C 1021.2 hPa Calm     91% 0 mm CLR
06:40 17 °C 15.5 °C 1021.2 hPa Calm     91% 0 mm CLR
06:50 17 °C 15.5 °C 1021.2 hPa Calm     91% 0 mm CLR
07:00 17 °C 15.5 °C 1021.6 hPa Calm     91% 0 mm CLR
07:10 17 °C 15.5 °C 1021.6 hPa Calm     91% 0 mm CLR
07:20 17 °C 15.5 °C 1021.6 hPa Calm     91% 0 mm FEW
07:30 17 °C 15.5 °C 1021.6 hPa Calm     91% 0 mm FEW
07:35 27.3 °C 14 °C 1019.5 hPa Calm   3.2 km/h 44% 0 mm
07:40 17 °C 15.5 °C 1021.6 hPa Calm     91% 0 mm FEW
07:50 17 °C 15.5 °C 1021.6 hPa Calm     91% 0 mm FEW
08:00 16.2 °C 14 °C 1021.6 hPa Calm     87% 0 mm FEW
08:10 16.5 °C 14.2 °C 1021.6 hPa Calm   1.6 km/h 86% 0 mm FEW
08:20 17 °C 14.1 °C 1021.9 hPa Calm   1.6 km/h 83% 0 mm FEW
08:30 17.4 °C 14.5 °C 1021.9 hPa Calm   1.6 km/h 83% 0 mm FEW
08:40 17.8 °C 14.7 °C 1021.9 hPa Calm     82% 0 mm FEW
08:50 18.1 °C 14.8 °C 1022.2 hPa Calm   1.6 km/h 81% 0 mm FEW
09:00 18.7 °C 15.2 °C 1021.9 hPa Calm   1.6 km/h 80% 0 mm FEW
09:10 19.1 °C 14.8 °C 1021.9 hPa Calm     76% 0 mm FEW
09:20 19.7 °C 14.9 °C 1022.2 hPa Calm   1.6 km/h 74% 0 mm FEW
09:40 20.8 °C 15.8 °C 1022.2 hPa Calm   1.6 km/h 73% 0 mm FEW
09:50 21.3 °C 15.6 °C 1022.2 hPa Calm   1.6 km/h 70% 0 mm FEW
10:00 21.8 °C 14.7 °C 1022.2 hPa Calm   1.6 km/h 64% 0 mm FEW
10:10 22.4 °C 14.1 °C 1022.2 hPa Calm   1.6 km/h 59% 0 mm FEW
10:20 23.3 °C 14.3 °C 1022.2 hPa Calm   1.6 km/h 57% 0.25 mm RA
10:30 23.9 °C 14.6 °C 1022.2 hPa Calm   1.6 km/h 56% 0 mm SCT
10:40 24.5 °C 14 °C 1022.2 hPa Calm   1.6 km/h 52% 0 mm SCT
10:50 24.7 °C 13.8 °C 1022.2 hPa Calm   1.6 km/h 51% 0 mm SCT
11:00 24.9 °C 14.7 °C 1022.2 hPa Calm   3.2 km/h 53% 0 mm SCT
11:10 25.1 °C 16 °C 1022.2 hPa Calm   3.2 km/h 57% 0 mm SCT
11:20 25.3 °C 14.7 °C 1022.2 hPa Calm   1.6 km/h 52% 0 mm SCT
11:30 25.4 °C 14.8 °C 1022.2 hPa Calm   1.6 km/h 52% 0 mm SCT
11:40 25.6 °C 15.3 °C 1022.2 hPa Calm   1.6 km/h 53% 0 mm SCT
11:50 25.7 °C 13.9 °C 1022.2 hPa Calm   1.6 km/h 48% 0 mm SCT
12:00 25.6 °C 13.1 °C 1021.9 hPa Calm   3.2 km/h 46% 0 mm SCT
12:10 25.8 °C 11.9 °C 1021.9 hPa ENE 1.6 km/h 3.2 km/h 42% 0 mm SCT
12:20 25.8 °C 11.9 °C 1021.9 hPa NNE 1.6 km/h 3.2 km/h 42% 0 mm SCT
12:30 26.3 °C 12 °C 1021.9 hPa Calm   1.6 km/h 41% 0 mm SCT
12:40 26.8 °C 10 °C 1021.9 hPa Calm   4.8 km/h 35% 0 mm SCT
12:50 27.2 °C 11.3 °C 1021.6 hPa NW 1.6 km/h 4.8 km/h 37% 0 mm SCT
13:00 27.8 °C 11.7 °C 1021.6 hPa Calm   3.2 km/h 37% 0 mm SCT
13:10 28.3 °C 13.1 °C 1021.6 hPa Calm   1.6 km/h 39% 0 mm SCT
13:20 28.8 °C 13.4 °C 1021.6 hPa Calm   3.2 km/h 39% 0 mm FEW
13:30 28.4 °C 8.6 °C 1021.2 hPa Calm   3.2 km/h 29% 0 mm FEW
13:40 28.5 °C 11.6 °C 1020.9 hPa Calm   3.2 km/h 35% 0 mm FEW
13:50 28.7 °C 9.9 °C 1020.9 hPa Calm   1.6 km/h 31% 0 mm FEW
14:00 28.6 °C 9.8 °C 1020.5 hPa Calm   3.2 km/h 31% 0 mm FEW
14:10 28.6 °C 9.8 °C 1020.5 hPa Calm   4.8 km/h 31% 0 mm FEW
14:20 28.8 °C 10.9 °C 1020.5 hPa Calm   3.2 km/h 33% 0 mm SCT
14:30 28.6 °C 12 °C 1020.5 hPa SSE 1.6 km/h 3.2 km/h 36% 0 mm SCT
14:40 27.8 °C 11.4 °C 1020.2 hPa Calm   4.8 km/h 36% 0 mm SCT
14:50 27.6 °C 11.2 °C 1020.2 hPa Calm     36% 0 mm RA
15:00 27.6 °C 13.1 °C 1020.2 hPa Calm   1.6 km/h 41% 0.25 mm SCT
15:10 27.6 °C 13.8 °C 1020.2 hPa WSW 1.6 km/h 8 km/h 43% 0 mm SCT
15:20 27.4 °C 13.4 °C 1019.9 hPa Calm   8 km/h 42% 0 mm FEW
15:29 27.3 °C 14 °C 1019.9 hPa Calm   1.6 km/h 44% 0 mm FEW
15:34 27.3 °C 14 °C 1019.9 hPa East 3.7 km/h 3.7 km/h 44% 0.25 mm FEW
15:39 27.3 °C 13.7 °C 1019.5 hPa SE 3.7 km/h 3.7 km/h 43% 0.25 mm FEW
15:44 27.3 °C 13.3 °C 1019.5 hPa SE 3.7 km/h 3.7 km/h 42% 0.25 mm FEW
15:49 27.2 °C 13.9 °C 1019.5 hPa SW 3.7 km/h 3.7 km/h 44% 0.25 mm FEW
15:54 27.2 °C 14.6 °C 1019.2 hPa NNE 3.7 km/h   46% 0.25 mm FEW
15:59 27.2 °C 14.3 °C 1019.2 hPa ESE 3.7 km/h 3.7 km/h 45% 0 mm FEW
16:04 27.3 °C 15.3 °C 1019.2 hPa NNW 3.7 km/h   48% 0 mm FEW
16:09 27.3 °C 15 °C 1019.2 hPa West 3.7 km/h 3.7 km/h 47% 0 mm FEW
16:14 27.2 °C 13.6 °C 1019.2 hPa SW 3.7 km/h 3.7 km/h 43% 0 mm SCT
16:20 27.2 °C 13.8 °C 1019.2 hPa Calm   3.2 km/h 44% 0 mm SCT
16:25 27.2 °C 14.2 °C 1018.8 hPa WNW 1.6 km/h 1.6 km/h 45% 0 mm SCT
16:30 27.2 °C 14.6 °C 1018.8 hPa Calm   1.6 km/h 46% 0 mm SCT
16:35 27.2 °C 13.6 °C 1018.8 hPa SW 3.7 km/h 3.7 km/h 43% 0 mm SCT
16:40 27.2 °C 14.6 °C 1018.8 hPa SW 1.6 km/h 4.8 km/h 46% 0 mm SCT
16:45 27.3 °C 13.9 °C 1018.8 hPa NW 5.6 km/h 5.6 km/h 44% 0 mm SCT
16:50 27.3 °C 13.9 °C 1018.5 hPa Calm   3.2 km/h 44% 0 mm SCT
16:55 27.5 °C 13.4 °C 1018.5 hPa Calm   1.6 km/h 42% 0 mm SCT
17:05 27.8 °C 13.7 °C 1018.5 hPa Calm   3.2 km/h 42% 0 mm SCT
17:10 27.9 °C 14.6 °C 1018.5 hPa Calm   1.6 km/h 44% 0 mm SCT
17:15 28.1 °C 13.9 °C 1018.5 hPa Calm   1.6 km/h 42% 0 mm SCT
17:20 28.2 °C 13.7 °C 1018.5 hPa Calm   1.6 km/h 41% 0 mm SCT
17:25 28.2 °C 14.1 °C 1018.5 hPa Calm   1.6 km/h 42% 0 mm SCT
17:30 28.2 °C 13.3 °C 1018.5 hPa Calm   1.6 km/h 40% 0 mm SCT
17:35 27.9 °C 14.8 °C 1018.5 hPa Calm   3.2 km/h 45% 0 mm SCT
17:40 27.6 °C 14.3 °C 1018.2 hPa East 7.4 km/h 7.4 km/h 44% 0 mm SCT
17:45 27.4 °C 13.7 °C 1018.2 hPa Calm   3.2 km/h 43% 0 mm SCT
17:50 27.3 °C 14.3 °C 1018.2 hPa Calm     45% 0 mm SCT
17:55 27.4 °C 14.7 °C 1018.2 hPa Calm   1.6 km/h 46% 0 mm SCT
18:00 27.2 °C 14.3 °C 1018.2 hPa Calm   1.6 km/h 45% 0 mm SCT
18:05 27 °C 14.4 °C 1018.2 hPa Calm   1.6 km/h 46% 0 mm SCT
18:10 26.8 °C 13.9 °C 1018.2 hPa Calm   3.2 km/h 45% 0 mm SCT
18:15 26.7 °C 13.4 °C 1017.8 hPa Calm   1.6 km/h 44% 0 mm SCT
18:20 26.7 °C 14.1 °C 1017.8 hPa Calm   1.6 km/h 46% 0 mm SCT
18:25 26.5 °C 13.6 °C 1017.8 hPa Calm   3.2 km/h 45% 0 mm SCT
18:30 26.4 °C 14.2 °C 1017.8 hPa NNE 7.4 km/h   47% 0 mm SCT
18:35 26.3 °C 13.7 °C 1017.8 hPa Calm   1.6 km/h 46% 0 mm SCT
18:40 26.2 °C 14.3 °C 1017.8 hPa Calm   1.6 km/h 48% 0 mm SCT
18:45 26.1 °C 13.6 °C 1017.8 hPa ENE 7.4 km/h   46% 0 mm SCT
18:50 25.9 °C 14.4 °C 1017.5 hPa Calm     49% 0 mm SCT
18:55 25.8 °C 13.6 °C 1017.8 hPa Calm   1.6 km/h 47% 0 mm SCT
19:00 25.7 °C 14.2 °C 1017.8 hPa Calm   1.6 km/h 49% 0 mm SCT
19:05 25.6 °C 14.4 °C 1017.8 hPa Calm   1.6 km/h 50% 0 mm SCT
19:10 25.5 °C 14.6 °C 1017.8 hPa Calm     51% 0 mm SCT
19:15 25.3 °C 14.4 °C 1017.8 hPa NNE 7.4 km/h   51% 0 mm SCT
19:20 25.3 °C 15.3 °C 1017.8 hPa Calm   3.2 km/h 54% 0 mm SCT
19:25 25.1 °C 15.4 °C 1017.8 hPa WNW 7.4 km/h   55% 0 mm SCT
19:30 25 °C 14.2 °C 1017.8 hPa WNW 7.4 km/h   51% 0 mm SCT
19:35 24.9 °C 14.1 °C 1017.8 hPa NW 7.4 km/h   51% 0 mm SCT
19:40 24.9 °C 14.3 °C 1017.8 hPa NW 7.4 km/h   52% 0 mm SCT
19:45 24.8 °C 15.2 °C 1017.8 hPa East 7.4 km/h   55% 0 mm SCT
19:47 24.8 °C 14.3 °C 1017.8 hPa East 7.4 km/h 7.4 km/h 52% 0 mm SCT
19:52 24.7 °C 15.1 °C 1017.8 hPa East 7.4 km/h   55% 0 mm SCT
19:58 24.5 °C 15.4 °C 1017.8 hPa East 7.4 km/h   57% 0 mm SCT
20:03 24.3 °C 15.2 °C 1017.8 hPa East 7.4 km/h   57% 0 mm SCT
20:08 24.1 °C 15.3 °C 1017.8 hPa East 7.4 km/h   58% 0 mm SCT
20:13 23.9 °C 15.4 °C 1017.8 hPa East 7.4 km/h   59% 0 mm SCT
20:18 23.8 °C 15 °C 1017.8 hPa East 7.4 km/h   58% 0 mm SCT
20:23 23.6 °C 15.1 °C 1017.8 hPa East 7.4 km/h   59% 0 mm SCT
20:28 23.4 °C 15.2 °C 1017.8 hPa East 7.4 km/h   60% 0 mm SCT
20:33 23.3 °C 15.1 °C 1017.8 hPa East 7.4 km/h   60% 0 mm SCT
20:38 23.3 °C 15.3 °C 1017.8 hPa East 7.4 km/h   61% 0 mm SCT
20:43 23.2 °C 15.2 °C 1018.2 hPa East 7.4 km/h   61% 0 mm SCT
20:48 23.1 °C 15.4 °C 1018.2 hPa East 7.4 km/h   62% 0 mm SCT
20:53 22.9 °C 15.5 °C 1018.2 hPa East 7.4 km/h   63% 0 mm SCT
20:58 22.9 °C 15.2 °C 1018.2 hPa East 7.4 km/h   62% 0 mm SCT
21:03 22.8 °C 15.2 °C 1018.2 hPa East 7.4 km/h   62% 0 mm SCT
21:08 22.8 °C 15.2 °C 1018.2 hPa East 7.4 km/h   62% 0 mm SCT
21:10 22.8 °C 15.1 °C 1018.2 hPa East 7.4 km/h   62% 0 mm SCT
21:15 22.7 °C 14.6 °C 1018.2 hPa East 7.4 km/h   60% 0 mm SCT
21:20 22.7 °C 15.3 °C 1018.2 hPa East 7.4 km/h   63% 0 mm SCT
21:25 22.6 °C 15.2 °C 1018.2 hPa East 7.4 km/h   63% 0 mm SCT
21:30 22.5 °C 15.6 °C 1018.2 hPa East 7.4 km/h   65% 0 mm SCT
21:35 22.3 °C 15.2 °C 1018.2 hPa East 7.4 km/h   64% 0 mm SCT
21:38 22.3 °C 15.1 °C 1018.2 hPa East 7.4 km/h   64% 0 mm SCT
21:43 22.2 °C 15.3 °C 1018.2 hPa East 7.4 km/h   65% 0 mm SCT
21:48 22 °C 15.1 °C 1018.2 hPa East 7.4 km/h   65% 0 mm SCT
21:53 21.9 °C 15.5 °C 1018.2 hPa East 7.4 km/h   67% 0 mm SCT
21:58 21.9 °C 15 °C 1018.2 hPa East 7.4 km/h   65% 0 mm SCT
22:01 21.9 °C 15.3 °C 1018.2 hPa East 7.4 km/h   66% 0 mm SCT
22:06 21.9 °C 15.2 °C 1018.5 hPa East 7.4 km/h   66% 0 mm SCT
22:11 21.8 °C 15.4 °C 1018.5 hPa East 7.4 km/h   67% 0 mm SCT
22:16 21.7 °C 15.6 °C 1018.5 hPa East 7.4 km/h   68% 0.25 mm SCT
22:21 21.6 °C 15.6 °C 1018.5 hPa East 7.4 km/h   69% 0.25 mm SCT
22:26 21.4 °C 15.5 °C 1018.5 hPa East 7.4 km/h   69% 0.25 mm SCT
22:32 21.3 °C 15.3 °C 1018.5 hPa East 7.4 km/h   69% 0.25 mm SCT
22:37 21.1 °C 15.2 °C 1018.5 hPa East 7.4 km/h   69% 0.25 mm SCT
22:42 20.9 °C 15.7 °C 1018.5 hPa East 7.4 km/h   72% 0.25 mm SCT
22:47 20.8 °C 15.4 °C 1018.5 hPa East 7.4 km/h   71% 0.25 mm SCT
22:52 20.7 °C 15.5 °C 1018.5 hPa East 7.4 km/h   72% 0.25 mm SCT
22:57 20.6 °C 15.4 °C 1018.5 hPa East 7.4 km/h   72% 0.25 mm SCT
23:02 20.5 °C 15.5 °C 1018.5 hPa East 7.4 km/h   73% 0.25 mm SCT
23:07 20.4 °C 15.4 °C 1018.5 hPa East 7.4 km/h   73% 0.25 mm SCT
23:12 20.4 °C 15.4 °C 1018.8 hPa East 7.4 km/h   73% 0.25 mm SCT
23:17 20.3 °C 15.6 °C 1018.8 hPa East 7.4 km/h   74% 0 mm SCT
23:22 20.3 °C 15.5 °C 1018.8 hPa East 7.4 km/h   74% 0 mm SCT
23:27 20.2 °C 15.7 °C 1018.8 hPa East 7.4 km/h   75% 0 mm SCT
23:32 20.2 °C 15.8 °C 1018.8 hPa East 7.4 km/h   76% 0 mm SCT
23:37 20.1 °C 15.7 °C 1018.8 hPa East 7.4 km/h   76% 0 mm SCT
23:42 20.1 °C 15.7 °C 1018.8 hPa East 7.4 km/h   76% 0 mm SCT
23:47 19.9 °C 15.6 °C 1018.8 hPa East 7.4 km/h   76% 0 mm SCT
23:52 19.9 °C 15.7 °C 1018.5 hPa East 7.4 km/h   77% 0 mm SCT
23:58 19.8 °C 15.8 °C 1018.8 hPa East 7.4 km/h   78% 0 mm SCT
Piedmont Bend
Compliments of Weather Underground - 2 mb